Gum Springs, Arkansas
Current Conditions -  °F | °C
As of 2:56 AM on Sunday 23 Nov 2014 (Local Time) from KADF Reporting Station
Light Rain Light Rain  
Wind Chill: 58°   Ceiling: 4800
Heat Index: 58°   Visibility: 9mi
Dew Point: 58°   Wind: 12mph
Humidity: 100%   Direction: 130°SE
Pressure: 29.7"   Gusts: NA
Location:  34.0941°N, 93.0475°W
Report Text: KADF 230856Z AUTO 13010KT 9SM -RA FEW009 SCT038 BKN048 14/14 A2970 RMK AO2 58048 60011 T01440144 BKN V SCT RAE0759B29 P0000 SLP071
Loading
Personal Weather Stations






























Interactive Weather Map New forecast layout! Learn more

10-Day Weather Forecast

Advertisements
Track Severe Weather on mobile